sensor_id;sensor_type;location;lat;lon;timestamp;temperature;humidity
66610;DHT22;53468;48.276;14.416;2022-11-15T09:52:53;7.20;99.90
66610;DHT22;53468;48.276;14.416;2022-11-15T09:59:21;7.30;99.90
66610;DHT22;53468;48.276;14.416;2022-11-15T10:05:26;7.20;99.90
66610;DHT22;53468;48.276;14.416;2022-11-15T10:57:51;7.20;99.90
66610;DHT22;53468;48.276;14.416;2022-11-15T12:16:02;7.70;99.90
66610;DHT22;53468;48.276;14.416;2022-11-15T12:29:03;7.70;99.90
66610;DHT22;53468;48.276;14.416;2022-11-15T13:41:45;8.10;99.90
66610;DHT22;53468;48.276;14.416;2022-11-15T14:33:44;8.10;99.90
66610;DHT22;53468;48.276;14.416;2022-11-15T14:39:17;8.00;99.90
66610;DHT22;53468;48.276;14.416;2022-11-15T14:44:50;8.00;99.90
66610;DHT22;53468;48.276;14.416;2022-11-15T14:50:34;8.00;99.90
66610;DHT22;53468;48.276;14.416;2022-11-15T14:56:07;8.00;99.90
66610;DHT22;53468;48.276;14.416;2022-11-15T15:01:41;7.90;99.90
66610;DHT22;53468;48.276;14.416;2022-11-15T15:13:48;7.80;99.90
66610;DHT22;53468;48.276;14.416;2022-11-15T15:19:21;7.70;99.90
66610;DHT22;53468;48.276;14.416;2022-11-15T15:24:55;7.70;99.90
66610;DHT22;53468;48.276;14.416;2022-11-15T15:30:39;7.60;99.90
66610;DHT22;53468;48.276;14.416;2022-11-15T15:36:21;7.60;99.90
66610;DHT22;53468;48.276;14.416;2022-11-15T15:41:54;7.60;99.90
66610;DHT22;53468;48.276;14.416;2022-11-15T15:47:28;7.70;99.90
66610;DHT22;53468;48.276;14.416;2022-11-15T15:53:03;7.60;99.90
66610;DHT22;53468;48.276;14.416;2022-11-15T15:58:36;7.70;99.90
66610;DHT22;53468;48.276;14.416;2022-11-15T16:04:13;7.60;99.90
66610;DHT22;53468;48.276;14.416;2022-11-15T16:09:58;7.60;99.90
66610;DHT22;53468;48.276;14.416;2022-11-15T16:15:35;7.60;99.90
66610;DHT22;53468;48.276;14.416;2022-11-15T16:21:11;7.60;99.90
66610;DHT22;53468;48.276;14.416;2022-11-15T16:26:48;7.60;99.90
66610;DHT22;53468;48.276;14.416;2022-11-15T16:32:23;7.60;99.90
66610;DHT22;53468;48.276;14.416;2022-11-15T16:38:00;7.50;99.90
66610;DHT22;53468;48.276;14.416;2022-11-15T16:43:53;7.50;99.90
66610;DHT22;53468;48.276;14.416;2022-11-15T16:49:25;7.50;99.90
66610;DHT22;53468;48.276;14.416;2022-11-15T16:55:08;7.50;99.90
66610;DHT22;53468;48.276;14.416;2022-11-15T17:00:44;7.60;99.90
66610;DHT22;53468;48.276;14.416;2022-11-15T17:06:20;7.60;99.90
66610;DHT22;53468;48.276;14.416;2022-11-15T17:11:54;7.60;99.90
66610;DHT22;53468;48.276;14.416;2022-11-15T17:17:26;7.60;99.90
66610;DHT22;53468;48.276;14.416;2022-11-15T17:22:59;7.60;99.90
66610;DHT22;53468;48.276;14.416;2022-11-15T17:28:47;7.60;99.90
66610;DHT22;53468;48.276;14.416;2022-11-15T17:34:19;7.70;99.90
66610;DHT22;53468;48.276;14.416;2022-11-15T17:39:53;7.70;99.90
66610;DHT22;53468;48.276;14.416;2022-11-15T17:45:27;7.60;99.90
66610;DHT22;53468;48.276;14.416;2022-11-15T17:51:01;7.70;99.90
66610;DHT22;53468;48.276;14.416;2022-11-15T17:57:13;7.60;99.90
66610;DHT22;53468;48.276;14.416;2022-11-15T18:03:15;7.70;99.90
66610;DHT22;53468;48.276;14.416;2022-11-15T18:08:49;7.70;99.90
66610;DHT22;53468;48.276;14.416;2022-11-15T18:14:21;7.70;99.90
66610;DHT22;53468;48.276;14.416;2022-11-15T18:19:58;7.70;99.90
66610;DHT22;53468;48.276;14.416;2022-11-15T18:25:31;7.70;99.90
66610;DHT22;53468;48.276;14.416;2022-11-15T18:31:11;7.70;99.90
66610;DHT22;53468;48.276;14.416;2022-11-15T18:36:47;7.70;99.90
66610;DHT22;53468;48.276;14.416;2022-11-15T18:42:20;7.80;99.90
66610;DHT22;53468;48.276;14.416;2022-11-15T18:47:52;7.80;99.90
66610;DHT22;53468;48.276;14.416;2022-11-15T18:53:26;7.80;99.90
66610;DHT22;53468;48.276;14.416;2022-11-15T18:59:00;7.80;99.90
66610;DHT22;53468;48.276;14.416;2022-11-15T19:04:34;7.70;99.90
66610;DHT22;53468;48.276;14.416;2022-11-15T19:10:08;7.70;99.90
66610;DHT22;53468;48.276;14.416;2022-11-15T19:15:41;7.70;99.90
66610;DHT22;53468;48.276;14.416;2022-11-15T19:21:13;7.70;99.90
66610;DHT22;53468;48.276;14.416;2022-11-15T19:26:47;7.60;99.90
66610;DHT22;53468;48.276;14.416;2022-11-15T19:32:19;7.70;99.90
66610;DHT22;53468;48.276;14.416;2022-11-15T19:37:51;7.60;99.90
66610;DHT22;53468;48.276;14.416;2022-11-15T19:43:25;7.60;99.90
66610;DHT22;53468;48.276;14.416;2022-11-15T19:48:57;7.60;99.90
66610;DHT22;53468;48.276;14.416;2022-11-15T19:54:30;7.60;99.90
66610;DHT22;53468;48.276;14.416;2022-11-15T20:00:04;7.60;99.90
66610;DHT22;53468;48.276;14.416;2022-11-15T20:05:36;7.50;99.90
66610;DHT22;53468;48.276;14.416;2022-11-15T20:11:09;7.50;99.90
66610;DHT22;53468;48.276;14.416;2022-11-15T20:16:43;7.40;99.90
66610;DHT22;53468;48.276;14.416;2022-11-15T20:22:15;7.50;99.90
66610;DHT22;53468;48.276;14.416;2022-11-15T20:27:47;7.50;99.90
66610;DHT22;53468;48.276;14.416;2022-11-15T20:33:20;7.50;99.90
66610;DHT22;53468;48.276;14.416;2022-11-15T20:38:56;7.50;99.90
66610;DHT22;53468;48.276;14.416;2022-11-15T20:44:30;7.40;99.90
66610;DHT22;53468;48.276;14.416;2022-11-15T20:50:05;7.50;99.90
66610;DHT22;53468;48.276;14.416;2022-11-15T20:55:41;7.40;99.90
66610;DHT22;53468;48.276;14.416;2022-11-15T21:01:14;7.30;99.90
66610;DHT22;53468;48.276;14.416;2022-11-15T21:06:49;7.40;99.90
66610;DHT22;53468;48.276;14.416;2022-11-15T21:12:21;7.40;99.90
66610;DHT22;53468;48.276;14.416;2022-11-15T21:17:53;7.30;99.90
66610;DHT22;53468;48.276;14.416;2022-11-15T21:23:26;7.30;99.90
66610;DHT22;53468;48.276;14.416;2022-11-15T21:28:59;7.30;99.90
66610;DHT22;53468;48.276;14.416;2022-11-15T21:34:31;7.30;99.90
66610;DHT22;53468;48.276;14.416;2022-11-15T21:40:05;7.30;99.90
66610;DHT22;53468;48.276;14.416;2022-11-15T21:45:39;7.20;99.90
66610;DHT22;53468;48.276;14.416;2022-11-15T21:51:12;7.20;99.90
66610;DHT22;53468;48.276;14.416;2022-11-15T21:56:45;7.30;99.90
66610;DHT22;53468;48.276;14.416;2022-11-15T22:02:17;7.20;99.90
66610;DHT22;53468;48.276;14.416;2022-11-15T22:07:49;7.20;99.90
66610;DHT22;53468;48.276;14.416;2022-11-15T22:13:24;7.20;99.90
66610;DHT22;53468;48.276;14.416;2022-11-15T22:18:56;7.20;99.90
66610;DHT22;53468;48.276;14.416;2022-11-15T22:24:29;7.20;99.90
66610;DHT22;53468;48.276;14.416;2022-11-15T22:30:04;7.10;99.90
66610;DHT22;53468;48.276;14.416;2022-11-15T22:35:37;7.10;99.90
66610;DHT22;53468;48.276;14.416;2022-11-15T22:41:09;7.10;99.90
66610;DHT22;53468;48.276;14.416;2022-11-15T22:46:43;7.10;99.90
66610;DHT22;53468;48.276;14.416;2022-11-15T22:52:16;7.10;99.90
66610;DHT22;53468;48.276;14.416;2022-11-15T22:57:48;7.10;99.90
66610;DHT22;53468;48.276;14.416;2022-11-15T23:03:22;7.10;99.90
66610;DHT22;53468;48.276;14.416;2022-11-15T23:08:55;7.10;99.90
66610;DHT22;53468;48.276;14.416;2022-11-15T23:14:27;7.00;99.90
66610;DHT22;53468;48.276;14.416;2022-11-15T23:20:01;7.00;99.90
66610;DHT22;53468;48.276;14.416;2022-11-15T23:25:34;7.10;99.90
66610;DHT22;53468;48.276;14.416;2022-11-15T23:31:07;7.10;99.90
66610;DHT22;53468;48.276;14.416;2022-11-15T23:36:58;7.10;99.90
66610;DHT22;53468;48.276;14.416;2022-11-15T23:42:30;7.10;99.90
66610;DHT22;53468;48.276;14.416;2022-11-15T23:48:03;7.10;99.90
66610;DHT22;53468;48.276;14.416;2022-11-15T23:53:36;7.10;99.90
66610;DHT22;53468;48.276;14.416;2022-11-15T23:59:09;7.00;99.90
